createdAt,value
2022-08-30T00:00:45.568Z,17.60
2022-08-30T00:03:16.000Z,17.70
2022-08-30T00:05:46.389Z,17.70
2022-08-30T00:08:15.126Z,17.70
2022-08-30T00:10:43.954Z,17.70
2022-08-30T00:13:13.761Z,17.70
2022-08-30T00:15:43.533Z,17.50
2022-08-30T00:18:12.554Z,17.50
2022-08-30T00:20:40.750Z,17.50
2022-08-30T00:23:10.486Z,17.60
2022-08-30T00:25:38.846Z,17.60
2022-08-30T00:28:10.691Z,17.60
2022-08-30T00:30:39.930Z,17.50
2022-08-30T00:33:08.071Z,17.50
2022-08-30T00:35:36.324Z,17.40
2022-08-30T00:38:07.040Z,17.40
2022-08-30T00:40:37.878Z,17.30
2022-08-30T00:43:08.782Z,17.40
2022-08-30T00:45:44.114Z,17.50
2022-08-30T00:48:12.483Z,17.50
2022-08-30T00:50:43.999Z,17.40
2022-08-30T00:53:16.394Z,17.40
2022-08-30T00:55:46.748Z,17.50
2022-08-30T00:58:21.401Z,17.60
2022-08-30T01:00:50.959Z,17.60
2022-08-30T01:03:19.306Z,17.50
2022-08-30T01:05:50.026Z,17.50
2022-08-30T01:08:18.655Z,17.50
2022-08-30T01:10:48.795Z,17.50
2022-08-30T01:13:17.669Z,17.60
2022-08-30T01:15:46.870Z,17.50
2022-08-30T01:18:17.472Z,17.60
2022-08-30T01:20:53.217Z,17.50
2022-08-30T01:23:24.325Z,17.60
2022-08-30T01:25:54.289Z,17.50
2022-08-30T01:28:25.809Z,17.60
2022-08-30T01:30:54.660Z,17.50
2022-08-30T01:33:24.621Z,17.60
2022-08-30T01:35:56.396Z,17.60
2022-08-30T01:38:34.977Z,17.60
2022-08-30T01:41:11.450Z,17.60
2022-08-30T01:43:40.201Z,17.40
2022-08-30T01:46:11.005Z,17.40
2022-08-30T01:48:42.428Z,17.40
2022-08-30T01:51:19.001Z,17.40
2022-08-30T01:53:48.489Z,17.40
2022-08-30T01:56:20.537Z,17.40
2022-08-30T01:58:48.754Z,17.40
2022-08-30T02:01:19.813Z,17.40
2022-08-30T02:03:49.625Z,17.40
2022-08-30T02:06:20.505Z,17.40
2022-08-30T02:08:51.275Z,17.30
2022-08-30T02:11:19.727Z,17.30
2022-08-30T02:13:48.138Z,17.20
2022-08-30T02:16:19.451Z,17.30
2022-08-30T02:18:47.594Z,17.20
2022-08-30T02:21:16.234Z,17.20
2022-08-30T02:23:45.278Z,17.20
2022-08-30T02:26:15.783Z,17.20
2022-08-30T02:28:50.164Z,17.20
2022-08-30T02:31:20.990Z,17.20
2022-08-30T02:33:51.163Z,17.20
2022-08-30T02:36:20.747Z,17.20
2022-08-30T02:38:49.361Z,17.20
2022-08-30T02:41:19.292Z,17.20
2022-08-30T02:43:48.269Z,17.20
2022-08-30T02:46:16.981Z,17.20
2022-08-30T02:48:48.115Z,17.20
2022-08-30T02:51:16.575Z,17.10
2022-08-30T02:53:46.245Z,17.10
2022-08-30T02:56:16.120Z,17.10
2022-08-30T02:58:48.389Z,17.10
2022-08-30T03:01:18.453Z,17.00
2022-08-30T03:03:47.973Z,17.00
2022-08-30T03:06:17.167Z,17.10
2022-08-30T03:08:45.861Z,17.10
2022-08-30T03:11:14.913Z,17.10
2022-08-30T03:13:43.492Z,17.00
2022-08-30T03:16:13.589Z,17.00
2022-08-30T03:18:43.211Z,17.10
2022-08-30T03:21:13.111Z,17.00
2022-08-30T03:23:42.269Z,17.00
2022-08-30T03:26:12.629Z,17.00
2022-08-30T03:28:40.864Z,16.90
2022-08-30T03:31:09.687Z,16.90
2022-08-30T03:33:40.823Z,16.90
2022-08-30T03:40:54.762Z,16.90
2022-08-30T03:43:23.133Z,16.90
2022-08-30T03:45:52.116Z,16.90
2022-08-30T03:48:20.408Z,16.90
2022-08-30T03:50:50.243Z,16.90
2022-08-30T03:53:18.631Z,16.90
2022-08-30T03:55:47.289Z,16.90
2022-08-30T03:58:17.342Z,16.90
2022-08-30T04:00:47.577Z,16.90
2022-08-30T04:03:16.334Z,16.90
2022-08-30T04:05:45.312Z,16.90
2022-08-30T04:08:15.568Z,16.90
2022-08-30T06:43:49.301Z,17.60
2022-08-30T06:46:19.991Z,17.60
2022-08-30T06:48:48.838Z,17.70
2022-08-30T06:51:20.588Z,17.80
2022-08-30T06:53:50.190Z,17.70
2022-08-30T06:56:19.555Z,17.80
2022-08-30T06:58:49.768Z,17.90
2022-08-30T07:01:22.313Z,18.10
2022-08-30T07:03:51.383Z,18.30
2022-08-30T07:06:20.275Z,18.30
2022-08-30T07:08:54.829Z,18.40
2022-08-30T07:11:30.277Z,18.40
2022-08-30T07:14:00.033Z,18.60
2022-08-30T07:16:29.113Z,18.70
2022-08-30T07:18:58.707Z,18.70
2022-08-30T07:21:29.717Z,18.90
2022-08-30T07:23:59.589Z,18.90
2022-08-30T07:26:31.192Z,19.10
2022-08-30T07:29:02.448Z,19.20
2022-08-30T07:31:30.985Z,19.40
2022-08-30T07:33:59.286Z,19.40
2022-08-30T07:36:27.692Z,19.50
2022-08-30T07:38:56.198Z,19.50
2022-08-30T07:41:26.889Z,19.50
2022-08-30T07:43:56.488Z,19.70
2022-08-30T07:46:28.284Z,19.90
2022-08-30T07:48:56.810Z,20.00
2022-08-30T07:51:26.531Z,20.20
2022-08-30T07:53:55.387Z,20.40
2022-08-30T07:56:24.275Z,20.60
2022-08-30T07:58:52.398Z,20.70
2022-08-30T08:01:22.087Z,20.60
2022-08-30T08:03:52.401Z,20.80
2022-08-30T08:06:22.465Z,20.80
2022-08-30T08:08:50.741Z,20.90
2022-08-30T08:11:21.472Z,21.00
2022-08-30T08:13:53.269Z,21.10
2022-08-30T08:16:23.295Z,21.20
2022-08-30T08:18:53.851Z,21.20
2022-08-30T08:21:22.528Z,21.40
2022-08-30T08:23:51.505Z,21.60
2022-08-30T08:26:19.800Z,21.80
2022-08-30T08:28:48.249Z,22.00
2022-08-30T08:31:17.771Z,22.50
2022-08-30T08:33:46.447Z,22.90
2022-08-30T08:36:16.766Z,22.80
2022-08-30T08:38:45.318Z,22.70
2022-08-30T08:41:27.418Z,22.70
2022-08-30T08:43:55.961Z,22.80
2022-08-30T08:46:32.602Z,22.90
2022-08-30T08:49:05.259Z,23.10
2022-08-30T08:51:58.072Z,23.40
2022-08-30T08:54:33.252Z,24.00
2022-08-30T08:57:01.911Z,24.20
2022-08-30T08:59:30.342Z,24.20
2022-08-30T09:02:03.227Z,24.00
2022-08-30T09:04:36.430Z,24.00
2022-08-30T09:07:11.023Z,24.00
2022-08-30T09:09:42.465Z,24.10
2022-08-30T09:12:13.460Z,24.10
2022-08-30T09:14:46.532Z,24.10
2022-08-30T09:17:16.509Z,23.90
2022-08-30T09:19:46.361Z,23.70
2022-08-30T09:22:32.416Z,23.70
2022-08-30T09:25:04.766Z,24.00
2022-08-30T09:27:36.097Z,24.30
2022-08-30T09:33:00.688Z,24.90
2022-08-30T09:35:43.499Z,25.00
2022-08-30T09:38:18.974Z,25.00
2022-08-30T09:40:50.063Z,25.10
2022-08-30T09:43:25.681Z,25.60
2022-08-30T09:46:09.846Z,25.80
2022-08-30T09:48:41.059Z,26.00
2022-08-30T09:51:37.048Z,25.90
2022-08-30T09:54:18.841Z,25.50
2022-08-30T09:56:57.124Z,25.40
2022-08-30T09:59:39.972Z,25.50
2022-08-30T10:02:21.726Z,25.40
2022-08-30T10:04:58.838Z,25.40
2022-08-30T10:07:33.651Z,25.60
2022-08-30T10:10:10.691Z,25.90
2022-08-30T10:12:44.834Z,25.80
2022-08-30T10:15:20.589Z,25.70
2022-08-30T10:18:04.651Z,25.60
2022-08-30T10:20:37.921Z,25.60
2022-08-30T10:23:13.044Z,25.50
2022-08-30T10:25:46.953Z,25.50
2022-08-30T10:28:21.548Z,25.70
2022-08-30T10:30:56.875Z,25.90
2022-08-30T10:36:28.744Z,26.10
2022-08-30T10:38:57.878Z,26.30
2022-08-30T10:41:36.834Z,26.30
2022-08-30T10:44:10.969Z,26.40
2022-08-30T10:47:02.747Z,26.50
2022-08-30T10:49:36.396Z,26.60
2022-08-30T10:52:23.508Z,26.70
2022-08-30T10:54:59.868Z,26.80
2022-08-30T10:57:30.447Z,26.70
2022-08-30T11:00:06.084Z,26.50
2022-08-30T11:03:13.784Z,26.40
2022-08-30T11:06:04.294Z,26.30
2022-08-30T11:08:49.729Z,26.30
2022-08-30T11:11:26.844Z,26.50
2022-08-30T11:13:59.460Z,26.80
2022-08-30T11:16:39.927Z,26.90
2022-08-30T11:19:18.968Z,26.60
2022-08-30T11:21:50.968Z,26.60
2022-08-30T11:24:22.203Z,26.80
2022-08-30T11:27:08.111Z,26.90
2022-08-30T11:29:42.907Z,26.90
2022-08-30T11:33:02.202Z,27.10
2022-08-30T11:35:48.166Z,27.20
2022-08-30T11:38:42.142Z,27.30
2022-08-30T11:41:12.480Z,27.60
2022-08-30T11:43:56.298Z,27.70
2022-08-30T11:46:40.777Z,28.10
2022-08-30T11:49:50.911Z,28.20
2022-08-30T11:52:32.391Z,28.10
2022-08-30T11:55:42.264Z,27.90
2022-08-30T11:58:24.234Z,27.60
2022-08-30T12:01:40.727Z,28.00
2022-08-30T12:04:15.130Z,28.00
2022-08-30T12:07:04.920Z,28.40
2022-08-30T12:10:06.149Z,28.50
2022-08-30T12:12:53.071Z,29.10
2022-08-30T12:15:44.985Z,29.20
2022-08-30T12:18:29.910Z,28.80
2022-08-30T12:21:33.390Z,28.70
2022-08-30T12:24:18.926Z,28.80
2022-08-30T12:26:50.333Z,28.90
2022-08-30T12:29:20.802Z,28.50
2022-08-30T12:31:52.992Z,28.40
2022-08-30T12:34:25.720Z,28.20
2022-08-30T12:37:03.041Z,28.10
2022-08-30T12:39:36.374Z,28.20
2022-08-30T12:42:19.872Z,28.20
2022-08-30T12:44:49.271Z,28.10
2022-08-30T12:47:21.091Z,28.00
2022-08-30T12:49:51.919Z,28.30
2022-08-30T12:52:24.063Z,28.30
2022-08-30T12:54:54.233Z,28.60
2022-08-30T12:57:41.108Z,28.70
2022-08-30T13:00:11.305Z,28.80
2022-08-30T13:02:48.237Z,28.80
2022-08-30T13:05:48.230Z,28.80
2022-08-30T13:08:22.388Z,28.90
2022-08-30T13:10:57.414Z,28.80
2022-08-30T13:13:37.496Z,28.70
2022-08-30T13:16:23.365Z,28.60
2022-08-30T13:18:53.362Z,28.50
2022-08-30T13:21:26.023Z,28.30
2022-08-30T13:23:59.279Z,28.30
2022-08-30T13:26:31.864Z,28.30
2022-08-30T13:29:03.592Z,28.60
2022-08-30T13:31:33.417Z,28.80
2022-08-30T13:34:02.525Z,29.00
2022-08-30T13:36:33.764Z,29.30
2022-08-30T13:39:03.437Z,29.20
2022-08-30T13:41:34.106Z,29.20
2022-08-30T13:44:13.444Z,29.40
2022-08-30T13:46:53.438Z,29.40
2022-08-30T13:52:22.003Z,28.90
2022-08-30T13:54:51.831Z,29.10
2022-08-30T14:00:18.015Z,29.30
2022-08-30T14:02:54.080Z,29.40
2022-08-30T14:05:48.214Z,29.30
2022-08-30T14:11:02.952Z,29.00
2022-08-30T14:13:31.337Z,29.10
2022-08-30T14:18:51.482Z,29.00
2022-08-30T14:21:21.466Z,28.90
2022-08-30T14:23:53.729Z,29.00
2022-08-30T14:26:25.221Z,29.10
2022-08-30T14:28:55.558Z,29.10
2022-08-30T14:31:25.796Z,28.90
2022-08-30T14:33:54.408Z,29.00
2022-08-30T14:36:23.296Z,29.10
2022-08-30T14:38:52.948Z,29.10
2022-08-30T14:41:21.097Z,29.10
2022-08-30T14:43:51.310Z,29.00
2022-08-30T14:46:19.501Z,29.00
2022-08-30T14:48:50.406Z,28.80
2022-08-30T14:51:21.298Z,28.70
2022-08-30T14:53:52.289Z,28.60
2022-08-30T14:56:22.632Z,28.50
2022-08-30T14:58:52.292Z,28.30
2022-08-30T15:01:22.375Z,28.20
2022-08-30T15:03:52.279Z,27.90
2022-08-30T15:06:21.154Z,27.80
2022-08-30T15:08:50.241Z,27.70
2022-08-30T15:11:20.360Z,27.70
2022-08-30T15:13:49.282Z,27.80
2022-08-30T15:16:23.653Z,27.60
2022-08-30T15:18:54.155Z,27.40
2022-08-30T15:21:27.416Z,27.30
2022-08-30T15:23:56.013Z,27.30
2022-08-30T15:26:24.675Z,27.20
2022-08-30T15:28:53.693Z,27.20
2022-08-30T15:31:23.531Z,27.10
2022-08-30T15:33:53.276Z,26.90
2022-08-30T15:36:21.783Z,26.50
2022-08-30T15:38:50.139Z,26.40
2022-08-30T15:41:18.257Z,26.60
2022-08-30T15:43:46.661Z,26.50
2022-08-30T15:46:22.800Z,26.40
2022-08-30T15:48:55.357Z,26.40
2022-08-30T15:51:23.934Z,26.40
2022-08-30T15:53:53.619Z,26.20
2022-08-30T15:56:21.759Z,26.20
2022-08-30T15:58:52.901Z,26.20
2022-08-30T16:01:30.166Z,26.20
2022-08-30T16:04:00.718Z,26.30
2022-08-30T16:06:30.949Z,26.20
2022-08-30T16:09:00.423Z,26.20
2022-08-30T16:11:29.462Z,26.00
2022-08-30T16:13:59.468Z,26.00
2022-08-30T16:16:28.533Z,26.10
2022-08-30T16:18:56.925Z,26.00
2022-08-30T16:21:29.754Z,26.00
2022-08-30T16:24:01.378Z,26.00
2022-08-30T16:26:31.248Z,26.00
2022-08-30T16:29:00.242Z,26.10
2022-08-30T16:31:30.741Z,26.10
2022-08-30T16:34:02.342Z,26.10
2022-08-30T16:36:37.486Z,25.90
2022-08-30T16:39:08.424Z,25.80
2022-08-30T16:41:36.946Z,25.70
2022-08-30T16:44:07.506Z,25.70
2022-08-30T16:46:37.321Z,25.60
2022-08-30T16:49:08.814Z,25.60
2022-08-30T16:51:39.362Z,25.60
2022-08-30T16:54:09.028Z,25.60
2022-08-30T16:56:38.617Z,25.60
2022-08-30T17:01:56.664Z,25.40
2022-08-30T17:04:27.728Z,25.40
2022-08-30T17:06:57.677Z,25.20
2022-08-30T17:09:27.102Z,25.10
2022-08-30T17:11:55.275Z,25.10
2022-08-30T17:14:29.222Z,24.80
2022-08-30T17:16:58.648Z,24.60
2022-08-30T17:19:29.501Z,24.60
2022-08-30T17:22:00.515Z,24.60
2022-08-30T17:24:29.557Z,24.60
2022-08-30T17:26:58.398Z,24.60
2022-08-30T17:29:27.093Z,24.60
2022-08-30T17:31:55.296Z,24.50
2022-08-30T17:34:24.407Z,24.50
2022-08-30T17:36:55.804Z,24.40
2022-08-30T17:39:25.989Z,24.40
2022-08-30T17:41:54.335Z,24.30
2022-08-30T17:44:25.758Z,24.30
2022-08-30T17:46:55.318Z,24.20
2022-08-30T17:49:24.741Z,24.20
2022-08-30T17:51:56.576Z,24.10
2022-08-30T17:54:31.810Z,24.20
2022-08-30T17:57:00.859Z,24.10
2022-08-30T17:59:32.657Z,24.10
2022-08-30T18:02:03.525Z,23.90
2022-08-30T18:04:34.740Z,23.70
2022-08-30T18:07:03.497Z,23.70
2022-08-30T18:09:35.599Z,23.60
2022-08-30T18:12:06.168Z,23.50
2022-08-30T18:14:39.295Z,23.40
2022-08-30T18:17:08.247Z,23.50
2022-08-30T18:19:46.470Z,23.40
2022-08-30T18:22:15.647Z,23.40
2022-08-30T18:24:45.406Z,23.20
2022-08-30T18:27:13.649Z,23.10
2022-08-30T18:29:42.121Z,23.00
2022-08-30T18:32:11.361Z,23.10
2022-08-30T18:34:44.955Z,23.00
2022-08-30T18:37:13.761Z,22.90
2022-08-30T18:39:48.365Z,22.70
2022-08-30T18:42:18.863Z,22.50
2022-08-30T18:44:49.130Z,22.30
2022-08-30T18:47:17.318Z,22.20
2022-08-30T18:49:51.729Z,22.10
2022-08-30T18:52:19.825Z,22.10
2022-08-30T18:54:53.049Z,22.10
2022-08-30T18:57:21.946Z,22.00
2022-08-30T18:59:50.906Z,21.90
2022-08-30T19:02:19.307Z,21.90
2022-08-30T19:04:49.255Z,21.70
2022-08-30T19:07:19.471Z,21.70
2022-08-30T19:09:49.254Z,21.50
2022-08-30T19:12:19.611Z,21.50
2022-08-30T19:14:49.227Z,21.30
2022-08-30T19:17:17.597Z,21.40
2022-08-30T19:19:48.108Z,21.30
2022-08-30T19:22:18.074Z,21.30
2022-08-30T19:24:49.815Z,21.30
2022-08-30T19:27:19.218Z,21.30
2022-08-30T19:29:53.685Z,21.30
2022-08-30T19:32:22.357Z,21.20
2022-08-30T19:34:50.705Z,21.10
2022-08-30T19:37:19.503Z,21.10
2022-08-30T19:39:49.170Z,21.00
2022-08-30T19:42:17.357Z,20.90
2022-08-30T19:44:45.797Z,20.80
2022-08-30T19:47:14.455Z,20.70
2022-08-30T19:49:42.662Z,20.70
2022-08-30T19:52:11.149Z,20.60
2022-08-30T19:54:43.281Z,20.50
2022-08-30T19:57:12.907Z,20.60
2022-08-30T19:59:42.394Z,20.50
2022-08-30T20:02:13.544Z,20.50
2022-08-30T20:04:42.582Z,20.50
2022-08-30T20:07:10.970Z,20.30
2022-08-30T20:09:39.535Z,20.30
2022-08-30T20:12:08.330Z,20.30
2022-08-30T20:14:37.965Z,20.30
2022-08-30T20:17:06.246Z,20.20
2022-08-30T20:19:40.479Z,20.20
2022-08-30T20:22:09.334Z,20.20
2022-08-30T20:24:23.457Z,25.40
2022-08-30T20:24:39.258Z,20.10
2022-08-30T20:27:12.070Z,20.10
2022-08-30T20:29:42.174Z,19.90
2022-08-30T20:32:10.865Z,20.10
2022-08-30T20:34:39.808Z,20.00
2022-08-30T20:37:09.911Z,19.90
2022-08-30T20:39:39.192Z,19.90
2022-08-30T20:42:08.011Z,19.90
2022-08-30T20:44:36.150Z,19.90
2022-08-30T20:47:06.155Z,19.80
2022-08-30T20:49:35.692Z,19.70
2022-08-30T20:52:04.963Z,19.60
2022-08-30T20:54:33.327Z,19.60
2022-08-30T20:57:02.124Z,19.60
2022-08-30T20:59:30.266Z,19.60
2022-08-30T21:01:59.653Z,19.50
2022-08-30T21:04:31.690Z,19.50
2022-08-30T21:07:00.405Z,19.50
2022-08-30T21:09:28.680Z,19.50
2022-08-30T21:11:56.888Z,19.50
2022-08-30T21:14:25.249Z,19.50
2022-08-30T21:16:54.486Z,19.40
2022-08-30T21:19:22.804Z,19.40
2022-08-30T21:21:52.716Z,19.40
2022-08-30T21:24:20.971Z,19.40
2022-08-30T21:26:49.300Z,19.30
2022-08-30T21:29:17.455Z,19.30
2022-08-30T21:31:45.664Z,19.40
2022-08-30T21:34:17.207Z,19.30
2022-08-30T21:36:45.677Z,19.30
2022-08-30T21:39:18.688Z,19.20
2022-08-30T21:41:47.530Z,19.10
2022-08-30T21:44:17.558Z,19.10
2022-08-30T21:46:47.131Z,19.10
2022-08-30T21:49:17.761Z,19.10
2022-08-30T21:51:48.331Z,19.10
2022-08-30T21:54:18.725Z,19.10
2022-08-30T21:56:48.909Z,19.10
2022-08-30T21:59:18.541Z,19.00
2022-08-30T22:01:47.362Z,19.00
2022-08-30T22:04:16.320Z,19.00
2022-08-30T22:06:48.308Z,18.90
2022-08-30T22:09:20.266Z,18.90
2022-08-30T22:11:49.114Z,18.90
2022-08-30T22:14:19.586Z,18.90
2022-08-30T22:16:48.345Z,18.90
2022-08-30T22:19:21.024Z,18.90
2022-08-30T22:21:52.235Z,18.80
2022-08-30T22:24:32.294Z,18.80
2022-08-30T22:27:02.603Z,18.70
2022-08-30T22:29:31.416Z,18.70
2022-08-30T22:31:59.602Z,18.70
2022-08-30T22:34:28.734Z,18.70
2022-08-30T22:36:57.032Z,18.60
2022-08-30T22:39:27.639Z,18.50
2022-08-30T22:41:57.298Z,18.50
2022-08-30T22:44:25.532Z,18.40
2022-08-30T22:46:53.724Z,18.40
2022-08-30T22:49:21.992Z,18.30
2022-08-30T22:51:50.739Z,18.40
2022-08-30T22:54:18.865Z,18.40
2022-08-30T22:56:47.045Z,18.30
2022-08-30T22:59:16.817Z,18.40
2022-08-30T23:01:47.094Z,18.30
2022-08-30T23:04:15.801Z,18.30
2022-08-30T23:06:49.932Z,18.30
2022-08-30T23:09:18.925Z,18.40
2022-08-30T23:11:47.296Z,18.40
2022-08-30T23:14:19.425Z,18.30
2022-08-30T23:16:48.104Z,18.20
2022-08-30T23:19:16.685Z,18.10
2022-08-30T23:21:45.191Z,18.10
2022-08-30T23:24:30.889Z,18.00
2022-08-30T23:27:16.377Z,18.00
2022-08-30T23:30:04.204Z,18.00
2022-08-30T23:32:50.000Z,18.10
2022-08-30T23:35:35.769Z,18.10
2022-08-30T23:38:23.165Z,18.20
2022-08-30T23:41:09.083Z,18.00
2022-08-30T23:43:55.387Z,18.00
2022-08-30T23:46:42.879Z,17.90
2022-08-30T23:49:28.731Z,18.00
2022-08-30T23:52:14.516Z,18.00
2022-08-30T23:55:00.174Z,18.10
2022-08-30T23:57:46.337Z,18.10
